Time;durP1;ratioP1;P1;durP2;ratioP2;P2;SDS_P1;SDS_P2;PMS_P1;PMS_P2;Temp;Humidity;BMP_temperature;BMP_pressure;BME280_temperature;BME280_humidity;BME280_pressure;Samples;Min_cycle;Max_cycle;Signal;HPM_P1;HPM_P2
2022/08/20 00:01:39;;;;;;;23.70;14.25;;;;;;;25.01;100.00;101421.13;5078801;28;20093;-50
2022/08/20 00:04:05;;;;;;;28.97;15.90;;;;;;;25.07;100.00;101419.19;5077758;28;20033;-46
2022/08/20 00:06:32;;;;;;;30.17;15.90;;;;;;;25.04;100.00;101419.75;5076343;28;20071;-47
2022/08/20 00:08:58;;;;;;;26.87;15.23;;;;;;;25.18;100.00;101420.75;5076292;28;20059;-52
2022/08/20 00:11:25;;;;;;;29.20;14.73;;;;;;;25.10;100.00;101417.78;5076573;28;20021;-51
2022/08/20 00:13:55;;;;;;;27.53;15.57;;;;;;;25.21;100.00;101411.19;5075941;28;20036;-50
2022/08/20 00:16:23;;;;;;;23.90;14.40;;;;;;;25.10;100.00;101417.78;5073027;28;20035;-49
2022/08/20 00:18:48;;;;;;;27.43;14.23;;;;;;;25.09;100.00;101416.16;5071529;28;20041;-49
2022/08/20 00:21:16;;;;;;;28.40;14.63;;;;;;;24.96;100.00;101412.94;5070199;28;20037;-47
2022/08/20 00:23:45;;;;;;;23.57;15.30;;;;;;;24.84;100.00;101415.16;5072990;28;20029;-52
2022/08/20 00:26:12;;;;;;;28.50;15.30;;;;;;;24.85;100.00;101409.41;5076061;28;20036;-48
2022/08/20 00:28:39;;;;;;;27.60;14.27;;;;;;;24.82;100.00;101414.59;5076636;28;20025;-50
2022/08/20 00:31:09;;;;;;;23.33;13.10;;;;;;;24.72;100.00;101410.78;5074409;28;20029;-50
2022/08/20 00:33:35;;;;;;;28.50;15.30;;;;;;;24.56;100.00;101414.66;5079593;28;20041;-47
2022/08/20 00:36:05;;;;;;;;;;;;;;;24.60;100.00;101424.75;5077205;28;20040;-50
2022/08/20 00:38:33;;;;;;;26.77;14.70;;;;;;;24.33;100.00;101416.88;5078613;28;19916;-48
2022/08/20 00:40:59;;;;;;;29.93;14.87;;;;;;;24.36;100.00;101413.56;5079546;28;20059;-48
2022/08/20 00:43:29;;;;;;;;;;;;;;;24.65;100.00;101415.72;5081803;28;20052;-49
2022/08/20 00:45:56;;;;;;;28.50;15.40;;;;;;;24.79;100.00;101406.97;5075342;28;19913;-48
2022/08/20 00:48:24;;;;;;;27.80;15.30;;;;;;;24.86;100.00;101418.44;5071070;28;20032;-51
2022/08/20 00:50:49;;;;;;;27.10;14.50;;;;;;;24.80;100.00;101408.59;5071515;28;20025;-48
2022/08/20 00:53:25;;;;;;;26.20;13.85;;;;;;;24.63;100.00;101420.63;5069875;28;20043;-48
2022/08/20 00:55:51;;;;;;;25.88;13.65;;;;;;;24.65;100.00;101412.97;5074286;28;20037;-49
2022/08/20 00:58:17;;;;;;;26.25;13.07;;;;;;;24.71;100.00;101417.34;5076569;28;20072;-52
2022/08/20 01:00:46;;;;;;;26.63;13.53;;;;;;;24.67;100.00;101416.25;5078767;28;20037;-49
2022/08/20 01:03:14;;;;;;;26.17;12.63;;;;;;;24.66;100.00;101419.28;5077100;28;20047;-49
2022/08/20 01:05:45;;;;;;;25.13;13.13;;;;;;;24.62;100.00;101422.56;5082102;28;20057;-47
2022/08/20 01:08:13;;;;;;;22.30;11.70;;;;;;;24.39;100.00;101418.50;5078766;28;20032;-50
2022/08/20 01:10:41;;;;;;;24.00;12.20;;;;;;;24.51;100.00;101417.41;5083801;28;20068;-49
2022/08/20 01:13:13;;;;;;;23.37;12.93;;;;;;;24.51;100.00;101410.00;5076152;28;20039;-47
2022/08/20 01:15:41;;;;;;;25.90;12.80;;;;;;;24.69;100.00;101414.09;5078714;28;20033;-49
2022/08/20 01:18:12;;;;;;;22.47;12.07;;;;;;;24.61;100.00;101410.00;5081341;28;20037;-47
2022/08/20 01:21:02;;;;;;;19.80;11.70;;;;;;;24.69;100.00;101405.03;5075438;28;20036;-47
2022/08/20 01:23:40;;;;;;;22.30;13.13;;;;;;;24.70;100.00;101410.25;5072980;28;20068;-46
2022/08/20 01:26:14;;;;;;;23.20;12.10;;;;;;;24.64;100.00;101408.59;5074641;28;20041;-50
2022/08/20 01:28:42;;;;;;;21.33;11.47;;;;;;;24.61;100.00;101407.25;5079440;28;20024;-47
2022/08/20 01:31:12;;;;;;;21.77;12.17;;;;;;;24.57;100.00;101400.72;5079485;28;20048;-49
2022/08/20 01:33:37;;;;;;;28.93;11.70;;;;;;;24.43;100.00;101411.38;5075163;28;20093;-50
2022/08/20 01:36:04;;;;;;;;;;;;;;;24.19;100.00;101408.41;5077895;28;20037;-47
2022/08/20 01:38:31;;;;;;;22.30;11.20;;;;;;;24.22;100.00;101407.03;5075166;28;19988;-45
2022/08/20 01:41:03;;;;;;;24.07;12.97;;;;;;;24.29;100.00;101411.13;5082558;28;20041;-51
2022/08/20 01:43:29;;;;;;;25.40;12.07;;;;;;;24.09;100.00;101411.13;5073561;28;20029;-53
2022/08/20 01:45:54;;;;;;;24.02;12.10;;;;;;;23.97;100.00;101411.38;5078507;28;20047;-50
2022/08/20 01:48:21;;;;;;;21.52;13.00;;;;;;;24.00;100.00;101413.56;5085197;28;20123;-48
2022/08/20 01:51:07;;;;;;;24.17;12.50;;;;;;;23.89;100.00;101420.94;5083567;28;20066;-53
2022/08/20 01:53:43;;;;;;;21.97;12.90;;;;;;;24.06;100.00;101417.97;5078721;28;20052;-50
2022/08/20 01:56:13;;;;;;;24.30;14.07;;;;;;;24.01;100.00;101409.75;5080682;28;20032;-50
2022/08/20 01:58:48;;;;;;;22.70;13.77;;;;;;;24.18;100.00;101426.69;5081584;28;20037;-47
2022/08/20 02:01:24;;;;;;;28.77;12.73;;;;;;;24.16;100.00;101417.16;5079784;28;20033;-49
2022/08/20 02:03:50;;;;;;;22.42;12.70;;;;;;;24.30;100.00;101417.41;5073428;28;20101;-47
2022/08/20 02:06:16;;;;;;;23.58;11.98;;;;;;;24.40;100.00;101417.41;5074713;28;20016;-50
2022/08/20 02:08:42;;;;;;;22.73;12.93;;;;;;;24.41;100.00;101420.97;5075017;28;20033;-50
2022/08/20 02:11:08;;;;;;;23.67;11.27;;;;;;;24.43;100.00;101421.50;5076372;28;20094;-49
2022/08/20 02:13:34;;;;;;;24.83;12.97;;;;;;;24.39;100.00;101418.50;5078186;28;20033;-47
2022/08/20 02:15:59;;;;;;;24.75;12.55;;;;;;;24.11;100.00;101428.91;5079866;28;20033;-46
2022/08/20 02:18:25;;;;;;;24.40;13.13;;;;;;;23.99;100.00;101420.09;5077745;28;20033;-52
2022/08/20 02:20:51;;;;;;;;;;;;;;;24.15;100.00;101424.53;5086380;28;20032;-51
2022/08/20 02:23:17;;;;;;;19.13;12.57;;;;;;;24.27;100.00;101417.97;5080018;28;19935;-47
2022/08/20 02:25:50;;;;;;;;;;;;;;;24.05;100.00;101417.13;5082237;28;20029;-51
2022/08/20 02:28:18;;;;;;;21.17;12.33;;;;;;;24.11;100.00;101415.22;5079867;28;19912;-49
2022/08/20 02:34:02;;;;;;;24.27;13.40;;;;;;;24.05;100.00;101416.34;5335222;22;20053;-50
2022/08/20 02:36:28;;;;;;;23.83;14.00;;;;;;;23.81;100.00;101424.19;5003796;28;20040;-48
2022/08/20 02:38:54;;;;;;;;;;;;;;;23.84;100.00;101423.66;5005773;28;20094;-47
2022/08/20 02:41:22;;;;;;;26.40;14.60;;;;;;;23.91;100.00;101419.56;5005492;28;19918;-48
2022/08/20 02:43:50;;;;;;;25.70;14.20;;;;;;;24.05;100.00;101419.88;5002043;28;20034;-45
2022/08/20 02:46:17;;;;;;;36.00;15.63;;;;;;;23.85;100.00;101423.38;5025090;28;20045;-53
2022/08/20 02:48:42;;;;;;;28.43;15.43;;;;;;;23.76;100.00;101430.50;5021285;28;20026;-53
2022/08/20 02:51:08;;;;;;;25.88;14.93;;;;;;;24.04;100.00;101426.44;5023791;28;20108;-51
2022/08/20 02:53:36;;;;;;;35.25;15.30;;;;;;;24.14;100.00;101420.16;5021020;28;20105;-47
2022/08/20 02:56:04;;;;;;;30.47;14.57;;;;;;;24.15;100.00;101419.06;5025920;28;20073;-51
2022/08/20 02:58:30;;;;;;;26.80;16.03;;;;;;;24.18;100.00;101428.63;5024318;28;20058;-50
2022/08/20 03:00:57;;;;;;;29.67;15.00;;;;;;;24.17;100.00;101425.06;5020503;28;20034;-53
2022/08/20 03:03:23;;;;;;;;;;;;;;;24.03;100.00;101424.00;5022073;28;20057;-49
2022/08/20 03:05:52;;;;;;;27.63;14.93;;;;;;;23.89;100.00;101419.00;5019812;28;19941;-51
2022/08/20 03:08:18;;;;;;;28.30;15.23;;;;;;;23.89;100.00;101419.00;5019647;28;20031;-46
2022/08/20 03:10:45;;;;;;;;;;;;;;;23.89;100.00;101419.00;5019719;28;20039;-51
2022/08/20 03:13:12;;;;;;;23.60;13.20;;;;;;;23.91;100.00;101421.50;5018334;28;19921;-51
2022/08/20 03:15:41;;;;;;;24.77;14.20;;;;;;;23.98;100.00;101421.19;5019678;28;20066;-50
2022/08/20 03:18:07;;;;;;;27.93;13.00;;;;;;;24.01;100.00;101423.41;5019127;28;20038;-51
2022/08/20 03:20:33;;;;;;;26.53;13.57;;;;;;;23.96;100.00;101413.28;5019701;28;20030;-52
2022/08/20 03:22:58;;;;;;;31.15;15.50;;;;;;;23.69;100.00;101419.81;5019368;28;20032;-48
2022/08/20 03:25:25;;;;;;;28.58;13.43;;;;;;;24.10;100.00;101421.78;5018534;28;20038;-48
2022/08/20 03:27:52;;;;;;;29.43;14.93;;;;;;;23.91;100.00;101419.56;5022318;28;20061;-51
2022/08/20 03:30:18;;;;;;;26.42;13.65;;;;;;;24.08;100.00;101415.78;5015992;28;20074;-50
2022/08/20 03:32:44;;;;;;;;;;;;;;;24.13;100.00;101423.97;5020471;28;20038;-49
2022/08/20 03:35:13;;;;;;;46.03;15.97;;;;;;;24.28;100.00;101425.88;5016121;28;19917;-46
2022/08/20 03:37:40;;;;;;;127.43;22.87;;;;;;;24.32;100.00;101431.63;5018506;28;20124;-49
2022/08/20 03:40:09;;;;;;;63.03;19.97;;;;;;;24.19;100.00;101425.59;5018796;28;20041;-47
2022/08/20 03:42:36;;;;;;;44.47;18.37;;;;;;;23.87;100.00;101432.13;5015988;28;20049;-46
2022/08/20 03:45:02;;;;;;;;;;;;;;;23.65;100.00;101437.00;5019688;28;20038;-47
2022/08/20 03:47:27;;;;;;;37.93;18.80;;;;;;;23.85;100.00;101439.78;5016494;28;19971;-49
2022/08/20 03:49:58;;;;;;;37.78;17.77;;;;;;;23.80;100.00;101439.78;5019629;28;20037;-47
2022/08/20 03:52:25;;;;;;;37.17;17.00;;;;;;;23.90;100.00;101434.31;5019108;28;20053;-47
2022/08/20 03:54:51;;;;;;;33.23;16.27;;;;;;;23.95;100.00;101444.44;5018788;28;20064;-49
2022/08/20 03:57:17;;;;;;;30.90;14.48;;;;;;;23.73;100.00;101441.94;5018043;28;20034;-47
2022/08/20 03:59:43;;;;;;;33.05;14.13;;;;;;;23.58;100.00;101443.53;5019304;28;20066;-50
2022/08/20 04:02:10;;;;;;;;;;;;;;;23.45;100.00;101435.84;5019929;28;20045;-48
2022/08/20 04:04:37;;;;;;;28.00;14.32;;;;;;;23.31;100.00;101433.66;5020682;28;20190;-48
2022/08/20 04:07:16;;;;;;;27.23;13.37;;;;;;;23.34;100.00;101430.38;5020161;28;20034;-52
2022/08/20 04:09:42;;;;;;;32.60;14.67;;;;;;;23.40;100.00;101433.13;5019190;28;20067;-46
2022/08/20 04:12:11;;;;;;;36.10;16.10;;;;;;;23.40;100.00;101441.31;5014580;28;20030;-47
2022/08/20 04:14:39;;;;;;;33.27;16.07;;;;;;;23.33;100.00;101442.38;5013209;28;20038;-49
2022/08/20 04:17:06;;;;;;;33.37;15.80;;;;;;;23.48;100.00;101448.97;5014680;28;20098;-46
2022/08/20 04:19:32;;;;;;;35.00;15.97;;;;;;;23.52;100.00;101451.97;5019474;28;20042;-47
2022/08/20 04:21:57;;;;;;;35.58;15.25;;;;;;;23.34;100.00;101451.38;5016621;28;20069;-50
2022/08/20 04:24:26;;;;;;;38.88;14.68;;;;;;;23.31;100.00;101458.19;5020922;28;20049;-50
2022/08/20 04:26:53;;;;;;;28.53;14.60;;;;;;;23.34;100.00;101456.81;5020377;28;20038;-49
2022/08/20 04:29:21;;;;;;;28.87;12.87;;;;;;;23.37;100.00;101452.75;5018676;28;20027;-48
2022/08/20 04:31:47;;;;;;;31.77;15.50;;;;;;;23.32;100.00;101454.38;5019088;28;20090;-45
2022/08/20 04:34:15;;;;;;;33.37;16.63;;;;;;;23.28;100.00;101447.78;5004881;28;20054;-49
2022/08/20 04:36:41;;;;;;;35.13;16.03;;;;;;;23.23;100.00;101447.75;5019202;28;20034;-53
2022/08/20 04:39:06;;;;;;;44.00;18.92;;;;;;;23.27;100.00;101450.81;5024432;28;20029;-47
2022/08/20 04:41:32;;;;;;;44.00;24.63;;;;;;;23.00;100.00;101454.47;5002968;28;20073;-47
2022/08/20 04:43:57;;;;;;;43.03;18.98;;;;;;;22.92;100.00;101455.78;5021754;28;20049;-49
2022/08/20 04:46:26;;;;;;;36.35;17.80;;;;;;;23.13;100.00;101456.69;5004733;28;20038;-50
2022/08/20 04:48:52;;;;;;;65.23;33.43;;;;;;;22.88;100.00;101463.66;5020134;28;20029;-50
2022/08/20 04:51:18;;;;;;;28.13;17.42;;;;;;;22.71;100.00;101477.47;5019345;28;20030;-45
2022/08/20 04:53:44;;;;;;;43.97;21.83;;;;;;;22.56;100.00;101477.34;5021743;28;20045;-49
2022/08/20 04:56:11;;;;;;;51.67;24.10;;;;;;;22.91;100.00;101476.78;5019922;28;20098;-50
2022/08/20 04:58:39;;;;;;;40.97;20.53;;;;;;;23.15;100.00;101484.53;5022171;28;20042;-50
2022/08/20 05:01:10;;;;;;;68.13;34.80;;;;;;;23.22;100.00;101478.84;5019747;28;20065;-47
2022/08/20 05:03:37;;;;;;;39.33;21.57;;;;;;;23.26;100.00;101485.44;5018560;28;20042;-50
2022/08/20 05:06:06;;;;;;;62.60;32.10;;;;;;;23.41;100.00;101489.34;5018600;28;20034;-49
2022/08/20 05:08:34;;;;;;;41.27;22.67;;;;;;;23.41;100.00;101494.78;5022173;28;20031;-51
2022/08/20 05:11:00;;;;;;;44.17;22.47;;;;;;;23.32;100.00;101498.03;5021855;28;20072;-50
2022/08/20 05:13:26;;;;;;;39.03;20.15;;;;;;;23.31;100.00;101490.09;5015438;28;20030;-46
2022/08/20 05:15:52;;;;;;;50.45;27.52;;;;;;;23.34;100.00;101495.03;5019238;28;20038;-49
2022/08/20 05:18:20;;;;;;;43.08;22.95;;;;;;;23.33;100.00;101494.22;5020061;28;20030;-48
2022/08/20 05:20:47;;;;;;;72.17;44.00;;;;;;;23.33;100.00;101496.94;5023219;28;20493;-49
2022/08/20 05:23:14;;;;;;;46.17;25.83;;;;;;;23.29;100.00;101503.19;5017386;28;20045;-47
2022/08/20 05:25:42;;;;;;;26.90;15.47;;;;;;;23.23;100.00;101499.59;5021123;28;20049;-48
2022/08/20 05:28:11;;;;;;;26.83;13.93;;;;;;;23.23;100.00;101505.03;5020573;28;20022;-48
2022/08/20 05:30:39;;;;;;;36.07;17.93;;;;;;;23.25;100.00;101518.44;5019265;28;20038;-47
2022/08/20 05:33:06;;;;;;;61.80;33.50;;;;;;;23.22;100.00;101508.84;5021271;28;20058;-48
2022/08/20 05:35:37;;;;;;;47.50;25.03;;;;;;;23.23;100.00;101515.97;5021570;28;20081;-49
2022/08/20 05:38:05;;;;;;;67.50;38.70;;;;;;;23.21;100.00;101507.22;5024458;28;20046;-48
2022/08/20 05:40:31;;;;;;;33.37;18.13;;;;;;;23.18;100.00;101510.47;5018508;28;20034;-45
2022/08/20 05:42:57;;;;;;;;;;;;;;;23.18;100.00;101508.59;5019448;28;20049;-48
2022/08/20 05:45:23;;;;;;;42.67;19.57;;;;;;;23.20;100.00;101520.06;5019156;28;19913;-47
2022/08/20 05:47:49;;;;;;;27.95;15.02;;;;;;;23.18;100.00;101521.41;5020919;28;20034;-49
2022/08/20 05:50:16;;;;;;;30.08;17.65;;;;;;;23.05;100.00;101526.22;5022400;28;20077;-49
2022/08/20 05:52:42;;;;;;;31.00;16.73;;;;;;;23.17;100.00;101517.03;5019359;28;20093;-49
2022/08/20 05:55:12;;;;;;;32.28;15.63;;;;;;;23.19;100.00;101521.16;5022695;28;20030;-48
2022/08/20 05:57:38;;;;;;;29.50;15.50;;;;;;;23.24;100.00;101516.78;5018995;28;20034;-50
2022/08/20 06:00:08;;;;;;;26.87;14.80;;;;;;;23.28;100.00;101518.75;5019780;28;20022;-48
2022/08/20 06:05:22;;;;;;;23.63;13.57;;;;;;;23.36;100.00;101520.16;5021177;28;20037;-48
2022/08/20 06:07:49;;;;;;;25.35;13.68;;;;;;;23.39;100.00;101525.06;5019784;28;20062;-48
2022/08/20 06:10:16;;;;;;;26.93;14.97;;;;;;;23.27;100.00;101532.66;5016079;28;20034;-51
2022/08/20 06:12:43;;;;;;;29.67;14.20;;;;;;;23.13;100.00;101533.09;5023026;28;20036;-47
2022/08/20 06:15:09;;;;;;;30.27;14.13;;;;;;;23.43;100.00;101526.19;5019728;28;20026;-49
2022/08/20 06:17:35;;;;;;;;;;;;;;;23.34;100.00;101527.78;5020630;28;20046;-47
2022/08/20 06:20:05;;;;;;;20.77;11.87;;;;;;;23.51;100.00;101527.56;5021304;28;19984;-46
2022/08/20 06:22:31;;;;;;;32.90;13.40;;;;;;;23.47;100.00;101531.94;5019582;28;20030;-45
2022/08/20 06:24:57;;;;;;;70.65;37.70;;;;;;;23.57;100.00;101531.16;5021867;28;20030;-49
2022/08/20 06:27:23;;;;;;;66.10;35.55;;;;;;;23.56;100.00;101532.25;5020180;28;20034;-48
2022/08/20 06:29:49;;;;;;;47.38;25.77;;;;;;;23.62;100.00;101526.53;5021387;28;20029;-52
2022/08/20 06:32:16;;;;;;;40.90;24.13;;;;;;;23.57;100.00;101518.34;5019366;28;20058;-49
2022/08/20 06:34:41;;;;;;;24.85;14.18;;;;;;;23.57;100.00;101528.44;5019146;28;20039;-49
2022/08/20 06:37:15;;;;;;;24.65;13.52;;;;;;;23.67;100.00;101524.91;5017564;28;20040;-50
2022/08/20 06:39:41;;;;;;;42.53;21.77;;;;;;;23.50;100.00;101531.41;5022521;28;20038;-47
2022/08/20 06:42:07;;;;;;;;;;;;;;;23.34;100.00;101534.06;5019511;28;20049;-49
2022/08/20 06:44:33;;;;;;;24.87;11.07;;;;;;;23.52;100.00;101539.31;5021920;28;19917;-50
2022/08/20 06:47:03;;;;;;;22.27;10.70;;;;;;;23.64;100.00;101537.19;5023004;28;20090;-49
2022/08/20 06:49:29;;;;;;;28.73;14.27;;;;;;;23.52;100.00;101545.59;5021454;28;20205;-47
2022/08/20 06:51:54;;;;;;;;;;;;;;;23.32;100.00;101544.44;5018056;28;20066;-50
2022/08/20 06:54:20;;;;;;;26.87;12.07;;;;;;;23.53;100.00;101544.53;5018897;28;19945;-45
2022/08/20 06:56:45;;;;;;;21.92;12.18;;;;;;;23.49;100.00;101535.22;5017968;28;20053;-47
2022/08/20 06:59:11;;;;;;;27.13;14.70;;;;;;;23.80;100.00;101539.97;5014642;28;20040;-47
2022/08/20 07:01:36;;;;;;;19.85;11.23;;;;;;;23.81;100.00;101542.44;5018651;28;20031;-49
2022/08/20 07:04:02;;;;;;;21.20;11.80;;;;;;;23.94;100.00;101543.03;5015678;28;20034;-49
2022/08/20 07:06:28;;;;;;;;;;;;;;;23.90;100.00;101543.56;5014266;28;20030;-50
2022/08/20 07:08:54;;;;;;;15.27;8.00;;;;;;;23.81;100.00;101547.91;5017522;28;19914;-46
2022/08/20 07:11:20;;;;;;;21.20;8.77;;;;;;;23.78;100.00;101545.72;5020949;28;20064;-49
2022/08/20 07:13:47;;;;;;;10.13;5.70;;;;;;;24.19;100.00;101548.56;5013590;28;20046;-48
2022/08/20 07:16:14;;;;;;;13.43;7.90;;;;;;;24.20;100.00;101547.47;5014565;28;20038;-48
2022/08/20 07:18:40;;;;;;;22.40;7.90;;;;;;;24.23;100.00;101548.06;5021276;28;20038;-50
2022/08/20 07:21:05;;;;;;;20.70;8.48;;;;;;;24.23;100.00;101553.50;5017961;28;20070;-47
2022/08/20 07:23:30;;;;;;;10.15;5.10;;;;;;;24.28;100.00;101548.06;5019618;28;20168;-47
2022/08/20 07:25:56;;;;;;;10.00;4.03;;;;;;;24.38;100.00;101556.25;5022873;28;20058;-47
2022/08/20 07:28:27;;;;;;;24.38;13.00;;;;;;;24.52;100.00;101558.47;5022083;28;20038;-48
2022/08/20 07:33:39;;;;;;;19.27;11.53;;;;;;;24.63;100.00;101568.28;5019962;28;20061;-45
2022/08/20 07:36:05;;;;;;;11.30;5.63;;;;;;;24.66;100.00;101566.94;5016890;28;20066;-53
2022/08/20 07:38:32;;;;;;;18.73;7.40;;;;;;;24.61;100.00;101576.78;5013847;28;20039;-50
2022/08/20 07:41:04;;;;;;;13.90;7.27;;;;;;;24.37;100.00;101573.75;4999209;28;20034;-49
2022/08/20 07:43:31;;;;;;;12.60;6.20;;;;;;;24.30;100.00;101570.47;5012652;28;20034;-51
2022/08/20 07:46:00;;;;;;;12.00;5.50;;;;;;;24.48;100.00;101575.41;5016471;28;20082;-46
2022/08/20 07:48:29;;;;;;;20.57;7.30;;;;;;;24.39;100.00;101581.69;5015132;28;20026;-49
2022/08/20 07:50:57;;;;;;;16.20;6.70;;;;;;;24.38;100.00;101583.59;5017301;28;20026;-48
2022/08/20 07:53:23;;;;;;;11.43;6.63;;;;;;;24.11;100.00;101572.88;5020956;28;20034;-51
2022/08/20 07:55:49;;;;;;;20.30;7.60;;;;;;;24.52;100.00;101583.88;5017779;28;20036;-50
2022/08/20 07:58:18;;;;;;;17.92;6.60;;;;;;;24.77;100.00;101594.03;5021463;28;20042;-50
2022/08/20 08:00:44;;;;;;;14.30;7.40;;;;;;;25.05;100.00;101591.81;5019395;28;20068;-47
2022/08/20 08:03:10;;;;;;;;;;;;;;;24.68;100.00;101589.34;5014398;28;20027;-48
2022/08/20 08:05:39;;;;;;;22.67;9.87;;;;;;;24.84;100.00;101595.69;5014984;28;19932;-51
2022/08/20 08:08:09;;;;;;;14.00;5.97;;;;;;;24.84;100.00;101599.25;5011209;28;20057;-46
2022/08/20 08:10:36;;;;;;;12.93;5.03;;;;;;;25.28;100.00;101595.06;5011629;28;20034;-47
2022/08/20 08:13:06;;;;;;;10.30;4.27;;;;;;;25.38;100.00;101598.91;4997117;28;20097;-49
2022/08/20 08:15:37;;;;;;;14.63;4.73;;;;;;;25.51;100.00;101598.34;5010542;28;20034;-50
2022/08/20 08:18:07;;;;;;;13.13;4.30;;;;;;;25.73;100.00;101600.72;5016474;28;20078;-53
2022/08/20 08:20:39;;;;;;;13.73;3.97;;;;;;;25.55;100.00;101601.34;5013260;28;20040;-49
2022/08/20 08:23:06;;;;;;;5.37;2.30;;;;;;;25.94;100.00;101606.09;5018685;28;20061;-48
2022/08/20 08:25:33;;;;;;;10.57;3.83;;;;;;;25.65;100.00;101600.50;5019018;28;20030;-46
2022/08/20 08:27:59;;;;;;;15.93;4.27;;;;;;;26.21;100.00;101596.69;5018111;28;20032;-49
2022/08/20 08:30:27;;;;;;;21.40;8.30;;;;;;;25.73;100.00;101603.47;5014559;28;20038;-49
2022/08/20 08:35:39;;;;;;;11.47;3.20;;;;;;;24.99;100.00;101603.88;5017279;28;20058;-48
2022/08/20 08:38:04;;;;;;;13.30;3.93;;;;;;;24.79;100.00;101606.63;5014317;28;20038;-47
2022/08/20 08:40:31;;;;;;;;;;;;;;;24.77;100.00;101609.63;5017812;28;20097;-51
2022/08/20 08:43:01;;;;;;;11.80;3.83;;;;;;;25.34;100.00;101607.66;5012342;28;19941;-49
2022/08/20 08:45:34;;;;;;;13.23;3.53;;;;;;;26.04;100.00;101610.72;5016184;28;20037;-49
2022/08/20 08:48:00;;;;;;;9.73;2.93;;;;;;;25.59;100.00;101616.91;5014212;28;20034;-49
2022/08/20 08:50:33;;;;;;;7.70;2.77;;;;;;;25.61;100.00;101622.97;5018735;28;20030;-52
2022/08/20 08:53:01;;;;;;;10.63;3.73;;;;;;;24.97;100.00;101616.19;5014959;28;20030;-49
2022/08/20 08:55:28;;;;;;;6.73;2.13;;;;;;;25.67;100.00;101621.00;5013228;28;20056;-51
2022/08/20 08:57:58;;;;;;;10.17;2.20;;;;;;;25.15;100.00;101618.38;5011664;28;20037;-48
2022/08/20 09:00:26;;;;;;;8.40;2.20;;;;;;;25.77;100.00;101618.25;5012438;28;20045;-50
2022/08/20 09:03:09;;;;;;;8.40;2.40;;;;;;;25.56;100.00;101617.47;5017885;28;20069;-49
2022/08/20 09:05:44;;;;;;;12.50;2.77;;;;;;;25.77;100.00;101622.88;5016764;28;20033;-50
2022/08/20 09:08:14;;;;;;;16.00;5.03;;;;;;;25.80;100.00;101630.53;5019423;28;20026;-49
2022/08/20 09:10:41;;;;;;;12.33;4.37;;;;;;;25.65;100.00;101631.41;5021143;28;20064;-50
2022/08/20 09:13:07;;;;;;;9.23;2.67;;;;;;;26.01;100.00;101630.47;5020151;28;20090;-47
2022/08/20 09:15:33;;;;;;;9.33;2.37;;;;;;;26.12;100.00;101626.56;5013424;28;20060;-52
2022/08/20 09:17:59;;;;;;;;;;;;;;;25.88;100.00;101635.47;5018984;28;20058;-50
2022/08/20 09:20:25;;;;;;;17.85;6.30;;;;;;;26.20;100.00;101617.78;5019842;28;19960;-48
2022/08/20 09:22:51;;;;;;;20.70;9.25;;;;;;;26.82;100.00;101630.25;5017590;28;20036;-52
2022/08/20 09:25:17;;;;;;;10.63;3.35;;;;;;;27.39;100.00;101628.94;5016846;28;20065;-51
2022/08/20 09:27:42;;;;;;;9.35;3.05;;;;;;;27.95;100.00;101627.47;5019270;28;20040;-49
2022/08/20 09:30:08;;;;;;;9.20;2.40;;;;;;;28.29;100.00;101636.66;5019429;28;20089;-48
2022/08/20 09:32:34;;;;;;;10.35;2.50;;;;;;;29.12;100.00;101636.19;5004065;28;20040;-52
2022/08/20 09:35:00;;;;;;;10.15;2.40;;;;;;;29.52;87.65;101637.69;5017965;28;20082;-50
2022/08/20 09:37:29;;;;;;;10.90;2.92;;;;;;;30.09;88.43;101640.13;5019684;28;20026;-49
2022/08/20 09:39:55;;;;;;;5.43;2.13;;;;;;;30.50;88.16;101637.56;5017624;28;20102;-49
2022/08/20 09:42:23;;;;;;;8.90;2.22;;;;;;;30.94;67.78;101646.16;5023727;28;20041;-53
2022/08/20 09:44:49;;;;;;;8.93;2.35;;;;;;;30.82;61.45;101643.97;5016903;28;20034;-50
2022/08/20 09:47:16;;;;;;;9.75;2.28;;;;;;;30.89;61.79;101649.84;5014875;28;20030;-46
2022/08/20 09:49:42;;;;;;;14.52;5.18;;;;;;;30.92;67.42;101643.72;5022568;28;20030;-54
2022/08/20 09:52:14;;;;;;;14.25;4.30;;;;;;;31.85;65.93;101641.25;5016901;28;20092;-51
2022/08/20 09:54:40;;;;;;;8.15;1.88;;;;;;;32.26;59.72;101647.47;5018145;28;20111;-51
2022/08/20 09:57:08;;;;;;;8.20;2.47;;;;;;;33.03;63.30;101646.09;5016204;28;20067;-49
2022/08/20 09:59:35;;;;;;;6.15;2.08;;;;;;;33.84;55.09;101651.78;5018379;28;20054;-51
2022/08/20 10:02:01;;;;;;;7.03;1.90;;;;;;;34.37;68.91;101651.44;5013934;28;20030;-53
2022/08/20 10:04:27;;;;;;;8.32;1.95;;;;;;;34.47;61.69;101650.19;5020640;28;20045;-50
2022/08/20 10:06:54;;;;;;;9.55;1.70;;;;;;;34.74;46.75;101656.38;5019753;28;20101;-51
2022/08/20 10:09:21;;;;;;;9.77;2.53;;;;;;;35.22;47.71;101648.47;5019961;28;20061;-49
2022/08/20 10:11:47;;;;;;;10.30;2.05;;;;;;;35.35;50.68;101659.63;5020654;28;20033;-50
2022/08/20 10:14:12;;;;;;;7.18;2.00;;;;;;;35.50;55.41;101652.56;5016536;28;20054;-51
2022/08/20 10:16:38;;;;;;;7.10;1.95;;;;;;;35.55;56.87;101650.38;5020537;28;20061;-48
2022/08/20 10:19:04;;;;;;;8.38;1.88;;;;;;;35.31;43.35;101651.97;5019985;28;20030;-50
2022/08/20 10:21:31;;;;;;;5.30;1.75;;;;;;;35.89;56.65;101655.78;5015286;28;20061;-46
2022/08/20 10:23:57;;;;;;;5.28;1.75;;;;;;;36.27;50.32;101657.31;5000098;28;20036;-49
2022/08/20 10:26:24;;;;;;;7.30;2.08;;;;;;;36.42;49.52;101663.31;5019208;28;20089;-50
2022/08/20 10:28:49;;;;;;;9.05;1.70;;;;;;;35.89;38.53;101664.94;5017889;28;20093;-51
2022/08/20 10:31:15;;;;;;;10.60;3.78;;;;;;;36.67;38.20;101658.44;4995550;28;20034;-50
2022/08/20 10:33:41;;;;;;;12.13;2.80;;;;;;;37.09;35.99;101671.13;5016629;28;20054;-48
2022/08/20 10:36:09;;;;;;;13.30;2.40;;;;;;;36.22;36.11;101654.00;5017608;28;20046;-47
2022/08/20 10:38:35;;;;;;;9.63;2.08;;;;;;;36.35;40.04;101657.56;5016548;28;20034;-52
2022/08/20 10:41:00;;;;;;;10.13;2.78;;;;;;;37.05;35.95;101667.47;5014135;28;20040;-48
2022/08/20 10:43:26;;;;;;;8.18;2.13;;;;;;;37.58;44.66;101660.78;5017635;28;20053;-50
2022/08/20 10:45:53;;;;;;;5.60;1.65;;;;;;;37.78;38.99;101667.22;5024818;28;20064;-52
2022/08/20 10:48:20;;;;;;;4.13;1.48;;;;;;;38.27;46.56;101656.69;5019734;28;20026;-50
2022/08/20 10:50:45;;;;;;;6.13;1.70;;;;;;;38.35;35.48;101675.25;5020433;28;20066;-48
2022/08/20 10:53:11;;;;;;;5.25;1.98;;;;;;;38.26;34.15;101677.44;5020988;28;20045;-50
2022/08/20 10:55:38;;;;;;;9.73;1.90;;;;;;;38.52;33.71;101679.59;5017655;28;20065;-50
2022/08/20 10:58:05;;;;;;;16.25;3.83;;;;;;;39.83;31.50;101679.84;5023950;28;20029;-51
2022/08/20 11:00:30;;;;;;;9.70;2.80;;;;;;;38.25;30.33;101670.22;5022542;28;20097;-48
2022/08/20 11:02:56;;;;;;;15.23;2.65;;;;;;;37.51;31.25;101674.56;5020116;28;20041;-52
2022/08/20 11:05:21;;;;;;;7.53;1.88;;;;;;;37.93;32.83;101662.75;5024850;28;20026;-53
2022/08/20 11:07:47;;;;;;;7.30;2.25;;;;;;;37.94;32.24;101660.78;5018394;28;20057;-52
2022/08/20 11:10:13;;;;;;;8.27;1.55;;;;;;;38.68;30.99;101671.09;5017334;28;20050;-51
2022/08/20 11:12:38;;;;;;;10.18;1.70;;;;;;;38.86;31.91;101665.84;5017201;28;20083;-49
2022/08/20 11:15:04;;;;;;;11.52;2.40;;;;;;;40.24;31.39;101665.13;5020135;28;20026;-52
2022/08/20 11:17:33;;;;;;;8.85;2.10;;;;;;;39.41;31.91;101675.19;5016911;28;20050;-52
2022/08/20 11:20:00;;;;;;;10.77;2.03;;;;;;;38.86;29.56;101676.22;5016839;28;20061;-51
2022/08/20 11:22:27;;;;;;;9.07;2.97;;;;;;;37.20;39.56;101663.06;5017831;28;20060;-50
2022/08/20 11:24:53;;;;;;;9.98;2.50;;;;;;;38.22;34.67;101668.19;5023676;28;20026;-49